createdAt,value
2023-03-08T00:00:07.727Z,3.25
2023-03-08T00:02:58.351Z,4.18
2023-03-08T00:05:25.990Z,4.05
2023-03-08T00:07:53.873Z,3.58
2023-03-08T00:10:21.953Z,4.15
2023-03-08T00:12:49.244Z,3.75
2023-03-08T00:15:16.830Z,3.67
2023-03-08T00:17:43.910Z,4.38
2023-03-08T00:20:12.825Z,4.82
2023-03-08T00:22:41.664Z,3.95
2023-03-08T00:25:11.073Z,3.55
2023-03-08T00:27:38.818Z,2.80
2023-03-08T00:30:07.203Z,2.97
2023-03-08T00:32:34.489Z,3.42
2023-03-08T00:35:01.897Z,3.50
2023-03-08T00:37:29.188Z,2.47
2023-03-08T00:39:56.621Z,3.60
2023-03-08T00:42:24.353Z,3.70
2023-03-08T00:44:51.894Z,3.53
2023-03-08T00:47:19.537Z,3.45
2023-03-08T00:49:47.071Z,4.45
2023-03-08T00:52:14.819Z,3.88
2023-03-08T00:54:44.508Z,3.58
2023-03-08T00:57:11.800Z,3.45
2023-03-08T00:59:39.237Z,3.58
2023-03-08T01:02:06.869Z,3.65
2023-03-08T01:04:34.675Z,4.30
2023-03-08T01:07:01.835Z,3.85
2023-03-08T01:09:29.400Z,3.53
2023-03-08T01:11:56.532Z,3.60
2023-03-08T01:14:24.261Z,4.50
2023-03-08T01:16:51.428Z,4.18
2023-03-08T01:19:18.833Z,3.85
2023-03-08T01:21:45.952Z,4.30
2023-03-08T01:24:13.470Z,4.30
2023-03-08T01:26:40.651Z,4.20
2023-03-08T01:29:08.150Z,4.32
2023-03-08T01:31:35.356Z,4.38
2023-03-08T01:34:02.874Z,4.53
2023-03-08T01:36:30.094Z,5.10
2023-03-08T01:39:00.951Z,4.45
2023-03-08T01:41:31.474Z,4.97
2023-03-08T01:43:59.324Z,4.50
2023-03-08T01:46:35.327Z,3.92
2023-03-08T01:49:19.161Z,4.45
2023-03-08T01:51:47.562Z,5.40
2023-03-08T01:54:22.761Z,5.78
2023-03-08T01:56:54.331Z,5.57
2023-03-08T01:59:23.724Z,4.43
2023-03-08T02:01:51.228Z,5.10
2023-03-08T02:04:19.879Z,5.15
2023-03-08T02:06:48.247Z,5.50
2023-03-08T02:09:21.460Z,6.43
2023-03-08T02:11:49.568Z,6.47
2023-03-08T02:14:17.028Z,5.57
2023-03-08T02:16:48.264Z,6.13
2023-03-08T02:19:54.212Z,6.35
2023-03-08T02:22:21.633Z,7.32
2023-03-08T02:24:49.226Z,6.53
2023-03-08T02:27:26.277Z,5.93
2023-03-08T02:29:54.624Z,7.18
2023-03-08T02:32:23.498Z,7.05
2023-03-08T02:34:51.077Z,6.70
2023-03-08T02:37:18.200Z,6.57
2023-03-08T02:39:49.350Z,6.40
2023-03-08T02:42:18.414Z,6.97
2023-03-08T02:44:45.887Z,7.35
2023-03-08T02:47:13.128Z,7.32
2023-03-08T02:49:40.610Z,7.85
2023-03-08T02:52:09.847Z,7.63
2023-03-08T02:54:37.362Z,8.75
2023-03-08T02:57:04.542Z,8.02
2023-03-08T02:59:32.288Z,8.10
2023-03-08T03:01:59.870Z,8.00
2023-03-08T03:04:33.124Z,8.55
2023-03-08T03:07:01.185Z,8.20
2023-03-08T03:09:30.582Z,10.02
2023-03-08T03:11:58.373Z,8.95
2023-03-08T03:14:28.287Z,9.93
2023-03-08T03:16:56.749Z,9.02
2023-03-08T03:19:24.190Z,8.82
2023-03-08T03:21:51.767Z,9.45
2023-03-08T03:24:19.488Z,8.50
2023-03-08T03:26:54.100Z,8.65
2023-03-08T03:29:23.584Z,9.25
2023-03-08T03:31:56.819Z,8.65
2023-03-08T03:34:24.619Z,8.57
2023-03-08T03:36:52.318Z,10.65
2023-03-08T03:39:19.826Z,9.82
2023-03-08T03:41:48.949Z,10.05
2023-03-08T03:44:16.696Z,9.68
2023-03-08T03:46:46.649Z,10.02
2023-03-08T03:49:17.022Z,10.05
2023-03-08T03:51:45.921Z,9.75
2023-03-08T03:54:19.576Z,9.85
2023-03-08T03:56:48.272Z,10.70
2023-03-08T03:59:15.834Z,10.75
2023-03-08T04:01:43.667Z,10.82
2023-03-08T04:04:22.000Z,9.27
2023-03-08T04:06:49.988Z,10.02
2023-03-08T04:09:21.061Z,10.55
2023-03-08T04:11:57.050Z,10.00
2023-03-08T04:14:24.811Z,11.02
2023-03-08T04:16:53.697Z,9.38
2023-03-08T04:19:30.149Z,10.45
2023-03-08T04:21:58.949Z,9.52
2023-03-08T04:24:32.873Z,9.70
2023-03-08T04:27:04.560Z,11.10
2023-03-08T04:29:32.792Z,10.38
2023-03-08T04:32:00.585Z,9.65
2023-03-08T04:34:38.252Z,10.48
2023-03-08T04:37:06.458Z,10.88
2023-03-08T04:39:34.239Z,11.68
2023-03-08T04:42:01.491Z,10.65
2023-03-08T04:44:31.733Z,10.60
2023-03-08T04:46:59.265Z,10.45
2023-03-08T04:49:34.593Z,9.55
2023-03-08T04:52:04.686Z,10.25
2023-03-08T04:54:34.476Z,10.45
2023-03-08T04:57:05.845Z,10.32
2023-03-08T04:59:35.234Z,10.63
2023-03-08T05:02:04.370Z,9.55
2023-03-08T05:04:34.857Z,9.90
2023-03-08T05:07:02.045Z,9.85
2023-03-08T05:09:33.118Z,10.15
2023-03-08T05:12:00.539Z,9.57
2023-03-08T05:14:37.704Z,9.45
2023-03-08T05:17:04.922Z,9.52
2023-03-08T05:19:35.029Z,10.27
2023-03-08T05:22:02.330Z,10.73
2023-03-08T05:24:31.287Z,10.45
2023-03-08T05:27:01.708Z,9.82
2023-03-08T05:29:29.261Z,11.10
2023-03-08T05:32:00.896Z,11.57
2023-03-08T05:34:30.000Z,11.85
2023-03-08T05:36:59.373Z,10.90
2023-03-08T05:39:26.893Z,12.07
2023-03-08T05:42:00.815Z,9.18
2023-03-08T05:44:37.711Z,8.37
2023-03-08T05:47:06.154Z,9.10
2023-03-08T05:49:33.897Z,8.43
2023-03-08T05:52:01.265Z,9.50
2023-03-08T05:54:29.802Z,9.52
2023-03-08T05:57:01.467Z,10.23
2023-03-08T05:59:30.419Z,8.73
2023-03-08T06:02:01.333Z,8.98
2023-03-08T06:04:39.757Z,9.00
2023-03-08T06:07:07.007Z,8.77
2023-03-08T06:09:39.116Z,8.95
2023-03-08T06:12:08.870Z,8.50
2023-03-08T06:14:36.362Z,7.22
2023-03-08T06:17:03.948Z,7.53
2023-03-08T06:19:34.737Z,6.43
2023-03-08T06:22:01.969Z,6.82
2023-03-08T06:24:29.951Z,8.07
2023-03-08T06:27:00.851Z,7.00
2023-03-08T06:29:28.417Z,8.40
2023-03-08T06:31:56.174Z,7.05
2023-03-08T06:34:23.931Z,6.60
2023-03-08T06:36:53.452Z,7.57
2023-03-08T06:39:21.996Z,6.90
2023-03-08T06:41:49.277Z,6.45
2023-03-08T06:44:16.822Z,5.97
2023-03-08T06:46:43.963Z,6.22
2023-03-08T06:49:11.482Z,6.30
2023-03-08T06:51:39.176Z,6.82
2023-03-08T06:54:06.690Z,5.80
2023-03-08T06:56:34.394Z,6.40
2023-03-08T06:59:02.001Z,6.68
2023-03-08T07:01:29.240Z,6.07
2023-03-08T07:03:59.953Z,5.47
2023-03-08T07:06:27.256Z,4.35
2023-03-08T07:08:54.764Z,5.55
2023-03-08T07:11:22.016Z,5.63
2023-03-08T07:13:49.483Z,6.50
2023-03-08T07:16:16.670Z,4.30
2023-03-08T07:18:44.156Z,5.22
2023-03-08T07:21:11.397Z,5.63
2023-03-08T07:23:38.818Z,4.90
2023-03-08T07:26:07.216Z,4.30
2023-03-08T07:28:35.128Z,3.70
2023-03-08T07:31:02.572Z,3.97
2023-03-08T07:33:29.997Z,3.58
2023-03-08T07:36:01.607Z,3.90
2023-03-08T07:38:29.634Z,3.10
2023-03-08T07:40:57.758Z,4.93
2023-03-08T07:43:25.384Z,3.88
2023-03-08T07:46:01.544Z,3.40
2023-03-08T07:48:29.689Z,3.30
2023-03-08T07:51:07.264Z,4.07
2023-03-08T07:53:35.262Z,3.03
2023-03-08T07:56:03.113Z,3.05
2023-03-08T07:58:30.736Z,3.75
2023-03-08T08:00:58.141Z,3.55
2023-03-08T08:03:25.853Z,3.88
2023-03-08T08:05:53.044Z,4.43
2023-03-08T08:08:20.488Z,2.88
2023-03-08T08:10:47.586Z,2.50
2023-03-08T08:13:14.986Z,3.05
2023-03-08T08:15:42.208Z,2.85
2023-03-08T08:18:09.719Z,2.70
2023-03-08T08:20:36.846Z,2.83
2023-03-08T08:23:07.656Z,2.40
2023-03-08T08:25:34.948Z,3.00
2023-03-08T08:28:02.642Z,3.13
2023-03-08T08:30:29.783Z,3.35
2023-03-08T08:32:57.650Z,3.30
2023-03-08T08:35:37.293Z,3.00
2023-03-08T08:38:09.780Z,2.65
2023-03-08T08:40:37.435Z,2.75
2023-03-08T08:43:05.089Z,2.97
2023-03-08T08:45:32.367Z,2.70
2023-03-08T08:47:59.741Z,3.35
2023-03-08T08:50:26.897Z,2.60
2023-03-08T08:52:54.391Z,2.65
2023-03-08T08:55:21.579Z,2.78
2023-03-08T08:57:48.977Z,2.70
2023-03-08T09:00:16.641Z,2.72
2023-03-08T09:02:44.057Z,3.25
2023-03-08T09:05:11.390Z,4.03
2023-03-08T09:07:39.343Z,6.65
2023-03-08T09:10:07.387Z,3.97
2023-03-08T09:12:35.336Z,4.55
2023-03-08T09:15:02.657Z,3.75
2023-03-08T09:17:30.747Z,3.85
2023-03-08T09:19:58.020Z,9.43
2023-03-08T09:22:26.609Z,2.90
2023-03-08T09:24:53.931Z,3.30
2023-03-08T09:27:21.476Z,2.72
2023-03-08T09:29:48.982Z,2.95
2023-03-08T09:32:16.561Z,3.13
2023-03-08T09:34:43.832Z,3.78
2023-03-08T09:37:12.233Z,3.95
2023-03-08T09:39:40.661Z,3.10
2023-03-08T09:42:24.192Z,3.40
2023-03-08T09:45:13.465Z,3.70
2023-03-08T09:47:53.085Z,4.25
2023-03-08T09:50:47.445Z,3.10
2023-03-08T09:53:14.844Z,3.78
2023-03-08T09:56:03.294Z,4.47
2023-03-08T09:58:33.619Z,5.55
2023-03-08T10:01:13.008Z,17.50
2023-03-08T10:03:55.403Z,8.40
2023-03-08T10:06:37.294Z,3.33
2023-03-08T10:09:37.127Z,4.50
2023-03-08T10:12:38.016Z,3.22
2023-03-08T10:15:15.200Z,8.57
2023-03-08T10:17:49.090Z,19.00
2023-03-08T10:20:22.061Z,2.88
2023-03-08T10:23:01.661Z,3.20
2023-03-08T10:25:34.336Z,4.90
2023-03-08T10:28:04.000Z,3.80
2023-03-08T10:30:46.984Z,3.08
2023-03-08T10:33:17.724Z,3.90
2023-03-08T10:35:53.872Z,5.78
2023-03-08T10:38:22.208Z,4.53
2023-03-08T10:40:50.307Z,5.75
2023-03-08T10:43:27.817Z,7.93
2023-03-08T10:46:02.239Z,11.18
2023-03-08T10:48:29.473Z,5.60
2023-03-08T10:51:02.586Z,5.55
2023-03-08T10:53:30.754Z,3.72
2023-03-08T10:56:00.276Z,2.25
2023-03-08T10:58:38.774Z,2.83
2023-03-08T11:01:22.633Z,3.15
2023-03-08T11:04:15.106Z,3.70
2023-03-08T11:06:43.436Z,3.55
2023-03-08T11:09:26.696Z,3.13
2023-03-08T11:11:58.452Z,3.60
2023-03-08T11:14:27.291Z,3.80
2023-03-08T11:17:06.849Z,3.78
2023-03-08T11:20:00.729Z,22.15
2023-03-08T11:22:28.560Z,4.43
2023-03-08T11:25:19.516Z,4.72
2023-03-08T11:28:09.924Z,3.00
2023-03-08T11:31:15.178Z,3.97
2023-03-08T11:34:13.856Z,8.88
2023-03-08T11:36:57.711Z,6.25
2023-03-08T11:39:33.281Z,14.70
2023-03-08T11:42:25.004Z,3.10
2023-03-08T11:45:00.044Z,3.13
2023-03-08T11:47:35.902Z,3.60
2023-03-08T11:50:20.878Z,4.72
2023-03-08T11:52:51.136Z,3.92
2023-03-08T11:55:40.428Z,3.15
2023-03-08T11:58:18.985Z,2.60
2023-03-08T12:00:49.650Z,2.75
2023-03-08T12:03:29.431Z,2.63
2023-03-08T12:06:01.283Z,2.90
2023-03-08T12:08:42.863Z,2.80
2023-03-08T12:11:24.873Z,3.47
2023-03-08T12:14:09.639Z,3.00
2023-03-08T12:17:21.045Z,2.80
2023-03-08T12:19:51.876Z,3.70
2023-03-08T12:22:25.141Z,13.25
2023-03-08T12:24:58.018Z,8.38
2023-03-08T12:27:46.294Z,3.30
2023-03-08T12:30:20.601Z,3.25
2023-03-08T12:32:49.247Z,7.57
2023-03-08T12:35:36.942Z,4.07
2023-03-08T12:38:31.749Z,3.33
2023-03-08T12:40:59.092Z,3.95
2023-03-08T12:43:26.516Z,3.20
2023-03-08T12:45:59.584Z,3.20
2023-03-08T12:48:48.332Z,3.03
2023-03-08T12:51:17.286Z,3.45
2023-03-08T12:53:52.095Z,3.83
2023-03-08T12:56:20.016Z,4.50
2023-03-08T12:58:58.352Z,14.55
2023-03-08T13:01:40.887Z,11.27
2023-03-08T13:04:41.455Z,6.32
2023-03-08T13:07:10.296Z,4.28
2023-03-08T13:09:47.127Z,7.47
2023-03-08T13:12:25.417Z,4.70
2023-03-08T13:15:11.320Z,8.13
2023-03-08T13:17:41.762Z,6.18
2023-03-08T13:20:18.574Z,6.53
2023-03-08T13:22:48.591Z,3.30
2023-03-08T13:25:31.011Z,21.70
2023-03-08T13:28:00.913Z,5.90
2023-03-08T13:30:58.809Z,4.93
2023-03-08T13:33:31.447Z,9.95
2023-03-08T13:36:01.537Z,16.70
2023-03-08T13:38:35.135Z,16.92
2023-03-08T13:41:02.822Z,8.85
2023-03-08T13:43:32.521Z,29.65
2023-03-08T13:46:05.632Z,18.92
2023-03-08T13:48:35.642Z,4.25
2023-03-08T13:51:03.902Z,7.32
2023-03-08T13:53:35.493Z,4.22
2023-03-08T13:56:06.159Z,4.43
2023-03-08T13:58:35.352Z,4.90
2023-03-08T14:01:06.114Z,4.05
2023-03-08T14:03:33.787Z,4.82
2023-03-08T14:06:01.390Z,5.72
2023-03-08T14:08:29.135Z,4.32
2023-03-08T14:11:03.696Z,4.95
2023-03-08T14:13:39.080Z,5.28
2023-03-08T14:16:09.486Z,4.47
2023-03-08T14:18:39.233Z,5.20
2023-03-08T14:21:13.478Z,4.57
2023-03-08T14:23:51.318Z,3.97
2023-03-08T14:26:38.668Z,3.80
2023-03-08T14:29:32.968Z,4.07
2023-03-08T14:32:22.269Z,3.85
2023-03-08T14:34:50.130Z,4.00
2023-03-08T14:37:25.002Z,4.25
2023-03-08T14:40:13.842Z,4.20
2023-03-08T14:42:48.830Z,4.55
2023-03-08T14:45:35.812Z,4.00
2023-03-08T14:48:18.448Z,4.38
2023-03-08T14:50:59.765Z,4.20
2023-03-08T14:53:32.226Z,5.05
2023-03-08T14:56:02.008Z,3.80
2023-03-08T14:58:34.199Z,4.80
2023-03-08T15:01:02.477Z,4.28
2023-03-08T15:03:32.514Z,4.70
2023-03-08T15:06:16.076Z,4.85
2023-03-08T15:08:43.792Z,4.70
2023-03-08T15:11:10.996Z,4.53
2023-03-08T15:13:38.450Z,4.80
2023-03-08T15:16:07.596Z,4.63
2023-03-08T15:18:35.184Z,5.40
2023-03-08T15:21:02.967Z,4.65
2023-03-08T15:23:34.071Z,4.50
2023-03-08T15:26:01.444Z,3.90
2023-03-08T15:28:28.886Z,4.18
2023-03-08T15:30:56.188Z,4.10
2023-03-08T15:33:23.806Z,4.03
2023-03-08T15:35:51.886Z,4.60
2023-03-08T15:38:21.499Z,5.90
2023-03-08T15:40:48.694Z,7.70
2023-03-08T15:43:16.155Z,9.52
2023-03-08T15:45:43.657Z,7.57
2023-03-08T15:48:18.760Z,7.05
2023-03-08T15:50:46.184Z,6.60
2023-03-08T15:53:20.580Z,7.22
2023-03-08T15:55:53.284Z,6.15
2023-03-08T15:58:20.673Z,7.75
2023-03-08T16:00:47.999Z,7.15
2023-03-08T16:03:15.482Z,9.23
2023-03-08T16:05:42.750Z,8.40
2023-03-08T16:08:13.450Z,10.32
2023-03-08T16:10:41.316Z,10.55
2023-03-08T16:13:08.930Z,11.48
2023-03-08T16:15:39.961Z,10.95
2023-03-08T16:18:07.761Z,15.38
2023-03-08T16:20:35.374Z,15.60
2023-03-08T16:23:03.502Z,26.48
2023-03-08T16:25:30.831Z,46.67
2023-03-08T16:27:58.402Z,55.22
2023-03-08T16:30:25.628Z,22.33
2023-03-08T16:32:53.837Z,20.08
2023-03-08T16:35:21.812Z,30.83
2023-03-08T16:37:49.310Z,16.23
2023-03-08T16:40:16.694Z,23.15
2023-03-08T16:42:44.327Z,45.42
2023-03-08T16:45:15.276Z,47.30
2023-03-08T16:47:42.928Z,20.83
2023-03-08T16:50:13.510Z,26.80
2023-03-08T16:52:41.037Z,14.93
2023-03-08T16:55:08.633Z,22.15
2023-03-08T16:57:38.452Z,17.90
2023-03-08T17:00:09.310Z,59.45
2023-03-08T17:02:36.856Z,46.75
2023-03-08T17:05:04.954Z,24.17
2023-03-08T17:07:32.902Z,53.67
2023-03-08T17:10:00.188Z,43.97
2023-03-08T17:12:27.623Z,37.53
2023-03-08T17:14:54.992Z,51.92
2023-03-08T17:17:22.445Z,50.38
2023-03-08T17:19:54.083Z,25.83
2023-03-08T17:22:21.797Z,30.25
2023-03-08T17:24:49.002Z,27.15
2023-03-08T17:27:16.479Z,30.33
2023-03-08T17:29:43.615Z,29.45
2023-03-08T17:32:11.136Z,126.25
2023-03-08T17:34:38.270Z,42.03
2023-03-08T17:37:12.015Z,35.85
2023-03-08T17:39:39.823Z,32.47
2023-03-08T17:42:08.168Z,22.70
2023-03-08T17:44:35.269Z,30.25
2023-03-08T17:47:03.042Z,33.28
2023-03-08T17:49:30.622Z,46.05
2023-03-08T17:51:58.111Z,54.67
2023-03-08T17:54:25.464Z,44.47
2023-03-08T17:56:53.154Z,55.65
2023-03-08T17:59:20.361Z,55.17
2023-03-08T18:01:47.988Z,40.42
2023-03-08T18:04:15.253Z,37.83
2023-03-08T18:06:43.323Z,24.10
2023-03-08T18:09:15.800Z,20.58
2023-03-08T18:11:43.827Z,16.85
2023-03-08T18:14:13.487Z,35.28
2023-03-08T18:16:42.601Z,47.03
2023-03-08T18:19:11.033Z,40.47
2023-03-08T18:21:40.975Z,42.10
2023-03-08T18:24:13.511Z,34.80
2023-03-08T18:26:41.184Z,32.35
2023-03-08T18:29:08.416Z,34.28
2023-03-08T18:31:37.371Z,34.42
2023-03-08T18:34:05.414Z,36.58
2023-03-08T18:36:33.078Z,41.88
2023-03-08T18:39:00.590Z,40.10
2023-03-08T18:41:29.644Z,42.15
2023-03-08T18:43:58.736Z,39.97
2023-03-08T18:46:28.989Z,38.35
2023-03-08T18:49:01.368Z,40.30
2023-03-08T18:51:30.709Z,37.80
2023-03-08T18:53:58.691Z,41.38
2023-03-08T18:56:27.347Z,39.85
2023-03-08T18:58:57.198Z,37.88
2023-03-08T19:01:24.797Z,36.28
2023-03-08T19:03:52.248Z,31.33
2023-03-08T19:06:19.891Z,26.55
2023-03-08T19:08:47.008Z,29.88
2023-03-08T19:11:23.154Z,28.48
2023-03-08T19:13:50.520Z,27.77
2023-03-08T19:16:25.275Z,30.70
2023-03-08T19:18:56.026Z,29.33
2023-03-08T19:21:29.718Z,29.17
2023-03-08T19:23:57.886Z,29.13
2023-03-08T19:26:37.116Z,27.92
2023-03-08T19:29:11.891Z,29.27
2023-03-08T19:31:46.499Z,28.48
2023-03-08T19:34:13.877Z,26.73
2023-03-08T19:36:43.285Z,24.08
2023-03-08T19:39:14.732Z,24.42
2023-03-08T19:41:43.329Z,28.63
2023-03-08T19:44:10.591Z,27.73
2023-03-08T19:46:39.091Z,28.50
2023-03-08T19:49:08.669Z,27.13
2023-03-08T19:51:36.766Z,27.98
2023-03-08T19:54:06.776Z,27.60
2023-03-08T19:56:34.929Z,27.00
2023-03-08T19:59:02.490Z,27.70
2023-03-08T20:01:30.031Z,25.98
2023-03-08T20:03:57.260Z,25.90
2023-03-08T20:06:26.552Z,21.95
2023-03-08T20:08:53.859Z,22.45
2023-03-08T20:11:21.716Z,22.60
2023-03-08T20:13:48.916Z,25.15
2023-03-08T20:16:18.068Z,25.17
2023-03-08T20:18:45.553Z,25.20
2023-03-08T20:21:13.062Z,23.90
2023-03-08T20:23:40.295Z,26.98
2023-03-08T20:26:07.966Z,29.25
2023-03-08T20:28:38.058Z,30.63
2023-03-08T20:31:10.476Z,30.27
2023-03-08T20:33:38.046Z,28.30
2023-03-08T20:36:06.145Z,27.80
2023-03-08T20:38:33.645Z,23.95
2023-03-08T20:41:09.860Z,24.25
2023-03-08T20:43:37.012Z,24.20
2023-03-08T20:46:06.667Z,25.52
2023-03-08T20:48:35.498Z,25.02
2023-03-08T20:51:04.988Z,26.45
2023-03-08T20:53:32.817Z,27.65
2023-03-08T20:56:04.754Z,30.50
2023-03-08T20:58:32.270Z,29.85
2023-03-08T21:00:59.841Z,29.50
2023-03-08T21:03:27.645Z,31.13
2023-03-08T21:05:55.036Z,29.67
2023-03-08T21:08:24.330Z,30.23
2023-03-08T21:10:51.756Z,26.60
2023-03-08T21:13:18.894Z,26.20
2023-03-08T21:15:47.099Z,25.88
2023-03-08T21:18:14.260Z,28.10
2023-03-08T21:20:41.651Z,23.52
2023-03-08T21:23:08.808Z,25.48
2023-03-08T21:25:36.903Z,25.88
2023-03-08T21:28:05.454Z,25.73
2023-03-08T21:30:33.202Z,28.08
2023-03-08T21:33:00.299Z,28.13
2023-03-08T21:35:27.657Z,27.30
2023-03-08T21:37:54.869Z,30.38
2023-03-08T21:40:22.273Z,28.80
2023-03-08T21:42:49.531Z,29.02
2023-03-08T21:45:17.271Z,30.02
2023-03-08T21:47:44.611Z,32.97
2023-03-08T21:50:12.454Z,30.67
2023-03-08T21:52:39.546Z,34.55
2023-03-08T21:55:07.233Z,34.35
2023-03-08T21:57:34.732Z,31.15
2023-03-08T22:00:02.287Z,22.15
2023-03-08T22:02:44.808Z,19.90
2023-03-08T22:05:14.435Z,20.23
2023-03-08T22:07:42.095Z,21.65
2023-03-08T22:10:12.180Z,23.17
2023-03-08T22:12:39.456Z,20.35
2023-03-08T22:15:07.787Z,21.77
2023-03-08T22:17:34.961Z,18.55
2023-03-08T22:20:02.546Z,18.52
2023-03-08T22:22:29.647Z,15.13
2023-03-08T22:24:57.104Z,17.02
2023-03-08T22:27:28.255Z,15.18
2023-03-08T22:29:56.126Z,14.93
2023-03-08T22:32:23.338Z,14.52
2023-03-08T22:34:50.784Z,14.73
2023-03-08T22:37:18.186Z,15.10
2023-03-08T22:39:45.702Z,14.35
2023-03-08T22:42:13.084Z,13.85
2023-03-08T22:44:41.291Z,14.52
2023-03-08T22:47:08.405Z,15.25
2023-03-08T22:49:35.877Z,14.82
2023-03-08T22:52:03.616Z,14.85
2023-03-08T22:54:31.361Z,14.57
2023-03-08T22:56:58.883Z,14.75
2023-03-08T22:59:26.503Z,13.63
2023-03-08T23:01:54.033Z,14.45
2023-03-08T23:04:21.640Z,12.88
2023-03-08T23:06:48.857Z,13.88
2023-03-08T23:09:17.137Z,14.93
2023-03-08T23:11:44.773Z,15.05
2023-03-08T23:14:12.975Z,13.93
2023-03-08T23:16:42.666Z,13.25
2023-03-08T23:19:18.594Z,14.77
2023-03-08T23:21:45.851Z,15.25
2023-03-08T23:25:25.143Z,14.05
2023-03-08T23:27:52.644Z,11.98
2023-03-08T23:30:20.215Z,12.95
2023-03-08T23:33:49.730Z,11.80
2023-03-08T23:38:46.234Z,10.70
2023-03-08T23:41:14.795Z,12.52
2023-03-08T23:43:42.676Z,11.20
2023-03-08T23:46:16.191Z,11.90
2023-03-08T23:48:45.693Z,12.52
2023-03-08T23:51:16.068Z,12.63
2023-03-08T23:53:43.483Z,13.70
2023-03-08T23:56:19.070Z,14.82
2023-03-08T23:58:48.622Z,13.75
